sensor_id;sensor_type;location;lat;lon;timestamp;temperature;humidity
40676;DHT22;26359;48.750;9.314;2023-02-18T00:01:57;11.70;99.90
40676;DHT22;26359;48.750;9.314;2023-02-18T00:04:23;11.70;99.90
40676;DHT22;26359;48.750;9.314;2023-02-18T00:06:49;11.70;99.90
40676;DHT22;26359;48.750;9.314;2023-02-18T00:09:15;11.70;99.90
40676;DHT22;26359;48.750;9.314;2023-02-18T00:11:40;11.70;99.90
40676;DHT22;26359;48.750;9.314;2023-02-18T00:14:11;11.70;99.90
40676;DHT22;26359;48.750;9.314;2023-02-18T00:16:37;11.70;99.90
40676;DHT22;26359;48.750;9.314;2023-02-18T00:19:04;11.70;99.90
40676;DHT22;26359;48.750;9.314;2023-02-18T00:21:32;11.70;99.90
40676;DHT22;26359;48.750;9.314;2023-02-18T00:23:58;11.70;99.90
40676;DHT22;26359;48.750;9.314;2023-02-18T00:26:24;11.70;99.90
40676;DHT22;26359;48.750;9.314;2023-02-18T00:28:50;11.70;99.90
40676;DHT22;26359;48.750;9.314;2023-02-18T00:31:22;11.70;99.90
40676;DHT22;26359;48.750;9.314;2023-02-18T00:33:48;11.70;99.90
40676;DHT22;26359;48.750;9.314;2023-02-18T00:36:16;11.70;99.90
40676;DHT22;26359;48.750;9.314;2023-02-18T00:38:47;11.70;99.90
40676;DHT22;26359;48.750;9.314;2023-02-18T00:41:15;11.70;99.90
40676;DHT22;26359;48.750;9.314;2023-02-18T00:43:40;11.80;99.90
40676;DHT22;26359;48.750;9.314;2023-02-18T00:46:06;11.70;99.90
40676;DHT22;26359;48.750;9.314;2023-02-18T00:48:32;11.70;99.90
40676;DHT22;26359;48.750;9.314;2023-02-18T00:50:58;11.70;99.90
40676;DHT22;26359;48.750;9.314;2023-02-18T00:53:25;11.80;99.90
40676;DHT22;26359;48.750;9.314;2023-02-18T00:55:51;11.80;99.90
40676;DHT22;26359;48.750;9.314;2023-02-18T00:58:16;11.70;99.90
40676;DHT22;26359;48.750;9.314;2023-02-18T01:00:42;11.80;99.90
40676;DHT22;26359;48.750;9.314;2023-02-18T01:03:08;11.80;99.90
40676;DHT22;26359;48.750;9.314;2023-02-18T01:05:35;11.80;99.90
40676;DHT22;26359;48.750;9.314;2023-02-18T01:08:01;11.80;99.90
40676;DHT22;26359;48.750;9.314;2023-02-18T01:10:27;11.80;99.90
40676;DHT22;26359;48.750;9.314;2023-02-18T01:12:52;11.80;99.90
40676;DHT22;26359;48.750;9.314;2023-02-18T01:15:18;11.70;99.90
40676;DHT22;26359;48.750;9.314;2023-02-18T01:17:44;11.70;99.90
40676;DHT22;26359;48.750;9.314;2023-02-18T01:20:11;11.80;99.90
40676;DHT22;26359;48.750;9.314;2023-02-18T01:22:37;11.80;99.90
40676;DHT22;26359;48.750;9.314;2023-02-18T01:25:03;11.70;99.90
40676;DHT22;26359;48.750;9.314;2023-02-18T01:27:29;11.70;99.90
40676;DHT22;26359;48.750;9.314;2023-02-18T01:29:55;11.70;99.90
40676;DHT22;26359;48.750;9.314;2023-02-18T01:32:20;11.70;99.90
40676;DHT22;26359;48.750;9.314;2023-02-18T01:34:46;11.70;99.90
40676;DHT22;26359;48.750;9.314;2023-02-18T01:37:12;11.70;99.90
40676;DHT22;26359;48.750;9.314;2023-02-18T01:39:38;11.70;99.90
40676;DHT22;26359;48.750;9.314;2023-02-18T01:42:04;11.60;99.90
40676;DHT22;26359;48.750;9.314;2023-02-18T01:44:32;11.60;99.90
40676;DHT22;26359;48.750;9.314;2023-02-18T01:46:57;11.60;99.90
40676;DHT22;26359;48.750;9.314;2023-02-18T01:49:26;11.60;99.90
40676;DHT22;26359;48.750;9.314;2023-02-18T01:52:15;11.60;99.90
40676;DHT22;26359;48.750;9.314;2023-02-18T01:54:48;11.70;99.90
40676;DHT22;26359;48.750;9.314;2023-02-18T01:57:19;11.60;99.90
40676;DHT22;26359;48.750;9.314;2023-02-18T01:59:49;11.60;99.90
40676;DHT22;26359;48.750;9.314;2023-02-18T02:02:18;11.60;99.90
40676;DHT22;26359;48.750;9.314;2023-02-18T02:04:46;11.60;99.90
40676;DHT22;26359;48.750;9.314;2023-02-18T02:07:13;11.60;99.90
40676;DHT22;26359;48.750;9.314;2023-02-18T02:09:40;11.60;99.90
40676;DHT22;26359;48.750;9.314;2023-02-18T02:17:56;11.60;99.90
40676;DHT22;26359;48.750;9.314;2023-02-18T02:28:34;11.50;99.90
40676;DHT22;26359;48.750;9.314;2023-02-18T02:36:21;11.40;99.90
40676;DHT22;26359;48.750;9.314;2023-02-18T02:41:43;11.50;99.90
40676;DHT22;26359;48.750;9.314;2023-02-18T02:46:47;11.40;99.90
40676;DHT22;26359;48.750;9.314;2023-02-18T02:52:22;11.40;99.90
40676;DHT22;26359;48.750;9.314;2023-02-18T02:54:48;11.40;99.90
40676;DHT22;26359;48.750;9.314;2023-02-18T02:59:48;11.50;99.90
40676;DHT22;26359;48.750;9.314;2023-02-18T03:07:55;11.40;99.90
40676;DHT22;26359;48.750;9.314;2023-02-18T03:10:45;11.40;99.90
40676;DHT22;26359;48.750;9.314;2023-02-18T03:18:37;11.30;99.90
40676;DHT22;26359;48.750;9.314;2023-02-18T03:23:59;11.30;99.90
40676;DHT22;26359;48.750;9.314;2023-02-18T03:26:27;11.30;99.90
40676;DHT22;26359;48.750;9.314;2023-02-18T03:28:59;11.30;99.90
40676;DHT22;26359;48.750;9.314;2023-02-18T03:31:27;11.20;99.90
40676;DHT22;26359;48.750;9.314;2023-02-18T03:34:24;11.30;99.90
40676;DHT22;26359;48.750;9.314;2023-02-18T03:36:51;11.20;99.90
40676;DHT22;26359;48.750;9.314;2023-02-18T03:39:19;11.10;99.90
40676;DHT22;26359;48.750;9.314;2023-02-18T03:41:45;11.10;99.90
40676;DHT22;26359;48.750;9.314;2023-02-18T03:44:12;11.10;99.90
40676;DHT22;26359;48.750;9.314;2023-02-18T03:46:40;11.20;99.90
40676;DHT22;26359;48.750;9.314;2023-02-18T03:49:09;11.20;99.90
40676;DHT22;26359;48.750;9.314;2023-02-18T03:51:34;11.10;99.90
40676;DHT22;26359;48.750;9.314;2023-02-18T03:54:00;11.10;99.90
40676;DHT22;26359;48.750;9.314;2023-02-18T03:56:25;11.10;99.90
40676;DHT22;26359;48.750;9.314;2023-02-18T03:58:51;11.10;99.90
40676;DHT22;26359;48.750;9.314;2023-02-18T04:01:17;11.10;99.90
40676;DHT22;26359;48.750;9.314;2023-02-18T04:03:42;11.10;99.90
40676;DHT22;26359;48.750;9.314;2023-02-18T04:06:08;11.10;99.90
40676;DHT22;26359;48.750;9.314;2023-02-18T04:08:34;11.00;99.90
40676;DHT22;26359;48.750;9.314;2023-02-18T04:10:59;11.00;99.90
40676;DHT22;26359;48.750;9.314;2023-02-18T04:13:26;11.00;99.90
40676;DHT22;26359;48.750;9.314;2023-02-18T04:15:51;10.90;99.90
40676;DHT22;26359;48.750;9.314;2023-02-18T04:18:17;10.90;99.90
40676;DHT22;26359;48.750;9.314;2023-02-18T04:20:42;10.90;99.90
40676;DHT22;26359;48.750;9.314;2023-02-18T04:23:08;10.90;99.90
40676;DHT22;26359;48.750;9.314;2023-02-18T04:25:34;10.90;99.90
40676;DHT22;26359;48.750;9.314;2023-02-18T04:27:59;10.80;99.90
40676;DHT22;26359;48.750;9.314;2023-02-18T04:30:25;10.90;99.90
40676;DHT22;26359;48.750;9.314;2023-02-18T04:32:51;10.80;99.90
40676;DHT22;26359;48.750;9.314;2023-02-18T04:35:16;10.80;99.90
40676;DHT22;26359;48.750;9.314;2023-02-18T04:37:42;10.80;99.90
40676;DHT22;26359;48.750;9.314;2023-02-18T04:40:08;10.80;99.90
40676;DHT22;26359;48.750;9.314;2023-02-18T04:42:33;10.80;99.90
40676;DHT22;26359;48.750;9.314;2023-02-18T04:44:59;10.80;99.90
40676;DHT22;26359;48.750;9.314;2023-02-18T04:47:25;10.80;99.90
40676;DHT22;26359;48.750;9.314;2023-02-18T04:49:50;10.70;99.90
40676;DHT22;26359;48.750;9.314;2023-02-18T04:52:16;10.80;99.90
40676;DHT22;26359;48.750;9.314;2023-02-18T04:54:41;10.80;99.90
40676;DHT22;26359;48.750;9.314;2023-02-18T04:57:07;10.70;99.90
40676;DHT22;26359;48.750;9.314;2023-02-18T04:59:32;10.70;99.90
40676;DHT22;26359;48.750;9.314;2023-02-18T05:01:58;10.70;99.90
40676;DHT22;26359;48.750;9.314;2023-02-18T05:04:24;10.60;99.90
40676;DHT22;26359;48.750;9.314;2023-02-18T05:06:49;10.60;99.90
40676;DHT22;26359;48.750;9.314;2023-02-18T05:09:15;10.60;99.90
40676;DHT22;26359;48.750;9.314;2023-02-18T05:11:42;10.60;99.90
40676;DHT22;26359;48.750;9.314;2023-02-18T05:14:08;10.60;99.90
40676;DHT22;26359;48.750;9.314;2023-02-18T05:16:33;10.60;99.90
40676;DHT22;26359;48.750;9.314;2023-02-18T05:18:59;10.50;99.90
40676;DHT22;26359;48.750;9.314;2023-02-18T05:21:25;10.50;99.90
40676;DHT22;26359;48.750;9.314;2023-02-18T05:23:50;10.50;99.90
40676;DHT22;26359;48.750;9.314;2023-02-18T05:26:16;10.40;99.90
40676;DHT22;26359;48.750;9.314;2023-02-18T05:28:42;10.40;99.90
40676;DHT22;26359;48.750;9.314;2023-02-18T05:31:07;10.50;99.90
40676;DHT22;26359;48.750;9.314;2023-02-18T05:33:33;10.50;99.90
40676;DHT22;26359;48.750;9.314;2023-02-18T05:35:58;10.50;99.90
40676;DHT22;26359;48.750;9.314;2023-02-18T05:38:24;10.40;99.90
40676;DHT22;26359;48.750;9.314;2023-02-18T05:40:50;10.40;99.90
40676;DHT22;26359;48.750;9.314;2023-02-18T05:43:15;10.40;99.90
40676;DHT22;26359;48.750;9.314;2023-02-18T05:45:41;10.40;99.90
40676;DHT22;26359;48.750;9.314;2023-02-18T05:48:06;10.40;99.90
40676;DHT22;26359;48.750;9.314;2023-02-18T05:50:32;10.30;99.90
40676;DHT22;26359;48.750;9.314;2023-02-18T05:52:58;10.30;99.90
40676;DHT22;26359;48.750;9.314;2023-02-18T05:55:23;10.30;99.90
40676;DHT22;26359;48.750;9.314;2023-02-18T05:57:49;10.30;99.90
40676;DHT22;26359;48.750;9.314;2023-02-18T06:00:15;10.30;99.90
40676;DHT22;26359;48.750;9.314;2023-02-18T06:02:41;10.30;99.90
40676;DHT22;26359;48.750;9.314;2023-02-18T06:05:07;10.30;99.90
40676;DHT22;26359;48.750;9.314;2023-02-18T06:07:33;10.40;99.90
40676;DHT22;26359;48.750;9.314;2023-02-18T06:09:58;10.30;99.90
40676;DHT22;26359;48.750;9.314;2023-02-18T06:12:24;10.30;99.90
40676;DHT22;26359;48.750;9.314;2023-02-18T06:14:50;10.30;99.90
40676;DHT22;26359;48.750;9.314;2023-02-18T06:17:16;10.30;99.90
40676;DHT22;26359;48.750;9.314;2023-02-18T06:19:43;10.40;99.90
40676;DHT22;26359;48.750;9.314;2023-02-18T06:22:09;10.40;99.90
40676;DHT22;26359;48.750;9.314;2023-02-18T06:24:35;10.40;99.90
40676;DHT22;26359;48.750;9.314;2023-02-18T06:27:01;10.30;99.90
40676;DHT22;26359;48.750;9.314;2023-02-18T06:29:27;10.30;99.90
40676;DHT22;26359;48.750;9.314;2023-02-18T06:31:56;10.20;99.90
40676;DHT22;26359;48.750;9.314;2023-02-18T06:34:21;10.20;99.90
40676;DHT22;26359;48.750;9.314;2023-02-18T06:36:47;10.20;99.90
40676;DHT22;26359;48.750;9.314;2023-02-18T06:39:12;10.20;99.90
40676;DHT22;26359;48.750;9.314;2023-02-18T06:41:38;10.20;99.90
40676;DHT22;26359;48.750;9.314;2023-02-18T06:44:04;10.20;99.90
40676;DHT22;26359;48.750;9.314;2023-02-18T06:46:30;10.20;99.90
40676;DHT22;26359;48.750;9.314;2023-02-18T06:48:56;10.20;99.90
40676;DHT22;26359;48.750;9.314;2023-02-18T06:51:21;10.20;99.90
40676;DHT22;26359;48.750;9.314;2023-02-18T06:53:47;10.30;99.90
40676;DHT22;26359;48.750;9.314;2023-02-18T06:56:12;10.30;99.90
40676;DHT22;26359;48.750;9.314;2023-02-18T06:58:38;10.30;99.90
40676;DHT22;26359;48.750;9.314;2023-02-18T07:01:04;10.30;99.90
40676;DHT22;26359;48.750;9.314;2023-02-18T07:03:29;10.30;99.90
40676;DHT22;26359;48.750;9.314;2023-02-18T07:05:55;10.40;99.90
40676;DHT22;26359;48.750;9.314;2023-02-18T07:08:21;10.40;99.90
40676;DHT22;26359;48.750;9.314;2023-02-18T07:10:46;10.40;99.90
40676;DHT22;26359;48.750;9.314;2023-02-18T07:13:12;10.50;99.90
40676;DHT22;26359;48.750;9.314;2023-02-18T07:15:38;10.40;99.90
40676;DHT22;26359;48.750;9.314;2023-02-18T07:18:03;10.50;99.90
40676;DHT22;26359;48.750;9.314;2023-02-18T07:20:29;10.50;99.90
40676;DHT22;26359;48.750;9.314;2023-02-18T07:22:54;10.60;99.90
40676;DHT22;26359;48.750;9.314;2023-02-18T07:25:20;10.60;99.90
40676;DHT22;26359;48.750;9.314;2023-02-18T07:27:46;10.60;99.90
40676;DHT22;26359;48.750;9.314;2023-02-18T07:30:12;10.60;99.90
40676;DHT22;26359;48.750;9.314;2023-02-18T07:32:38;10.60;99.90
40676;DHT22;26359;48.750;9.314;2023-02-18T07:35:04;10.50;99.90
40676;DHT22;26359;48.750;9.314;2023-02-18T07:37:31;10.60;99.90
40676;DHT22;26359;48.750;9.314;2023-02-18T07:39:57;10.60;99.90
40676;DHT22;26359;48.750;9.314;2023-02-18T07:42:22;10.60;99.90
40676;DHT22;26359;48.750;9.314;2023-02-18T07:44:48;10.60;99.90
40676;DHT22;26359;48.750;9.314;2023-02-18T07:47:15;10.60;99.90
40676;DHT22;26359;48.750;9.314;2023-02-18T07:49:43;10.60;99.90
40676;DHT22;26359;48.750;9.314;2023-02-18T07:52:08;10.60;99.90
40676;DHT22;26359;48.750;9.314;2023-02-18T07:54:34;10.60;99.90
40676;DHT22;26359;48.750;9.314;2023-02-18T07:56:59;10.60;99.90
40676;DHT22;26359;48.750;9.314;2023-02-18T07:59:25;10.70;99.90
40676;DHT22;26359;48.750;9.314;2023-02-18T08:01:51;10.70;99.90
40676;DHT22;26359;48.750;9.314;2023-02-18T08:04:16;10.80;99.90
40676;DHT22;26359;48.750;9.314;2023-02-18T08:06:45;10.80;99.90
40676;DHT22;26359;48.750;9.314;2023-02-18T08:09:11;10.90;99.90
40676;DHT22;26359;48.750;9.314;2023-02-18T08:11:37;11.00;99.90
40676;DHT22;26359;48.750;9.314;2023-02-18T08:14:03;11.10;99.90
40676;DHT22;26359;48.750;9.314;2023-02-18T08:16:29;11.20;99.90
40676;DHT22;26359;48.750;9.314;2023-02-18T08:18:55;11.20;99.90
40676;DHT22;26359;48.750;9.314;2023-02-18T08:21:22;11.40;99.90
40676;DHT22;26359;48.750;9.314;2023-02-18T08:23:48;11.40;99.90
40676;DHT22;26359;48.750;9.314;2023-02-18T08:26:15;11.40;99.90
40676;DHT22;26359;48.750;9.314;2023-02-18T08:28:42;11.40;99.90
40676;DHT22;26359;48.750;9.314;2023-02-18T08:31:19;11.50;99.90
40676;DHT22;26359;48.750;9.314;2023-02-18T08:33:45;11.60;99.90
40676;DHT22;26359;48.750;9.314;2023-02-18T08:36:11;11.70;99.90
40676;DHT22;26359;48.750;9.314;2023-02-18T08:38:37;11.70;99.90
40676;DHT22;26359;48.750;9.314;2023-02-18T08:41:04;11.70;99.90
40676;DHT22;26359;48.750;9.314;2023-02-18T08:43:30;11.80;99.90
40676;DHT22;26359;48.750;9.314;2023-02-18T08:45:57;11.80;99.90
40676;DHT22;26359;48.750;9.314;2023-02-18T08:48:23;11.80;99.90
40676;DHT22;26359;48.750;9.314;2023-02-18T08:50:55;11.90;99.90
40676;DHT22;26359;48.750;9.314;2023-02-18T08:53:21;11.90;99.90
40676;DHT22;26359;48.750;9.314;2023-02-18T08:55:46;11.90;99.90
40676;DHT22;26359;48.750;9.314;2023-02-18T08:58:12;11.90;99.90
40676;DHT22;26359;48.750;9.314;2023-02-18T09:00:39;12.00;99.90
40676;DHT22;26359;48.750;9.314;2023-02-18T09:03:05;11.90;99.90
40676;DHT22;26359;48.750;9.314;2023-02-18T09:05:31;12.00;99.90
40676;DHT22;26359;48.750;9.314;2023-02-18T09:07:56;12.10;99.90
40676;DHT22;26359;48.750;9.314;2023-02-18T09:10:22;12.10;99.90
40676;DHT22;26359;48.750;9.314;2023-02-18T09:12:48;12.20;99.90
40676;DHT22;26359;48.750;9.314;2023-02-18T09:15:13;12.20;99.90
40676;DHT22;26359;48.750;9.314;2023-02-18T09:17:39;12.30;99.90
40676;DHT22;26359;48.750;9.314;2023-02-18T09:20:05;12.30;99.90
40676;DHT22;26359;48.750;9.314;2023-02-18T09:22:31;12.30;99.90
40676;DHT22;26359;48.750;9.314;2023-02-18T09:24:57;12.30;99.90
40676;DHT22;26359;48.750;9.314;2023-02-18T09:27:23;12.40;99.90
40676;DHT22;26359;48.750;9.314;2023-02-18T09:29:48;12.40;99.90
40676;DHT22;26359;48.750;9.314;2023-02-18T09:32:15;12.50;99.90
40676;DHT22;26359;48.750;9.314;2023-02-18T09:34:42;12.50;99.90
40676;DHT22;26359;48.750;9.314;2023-02-18T09:37:08;12.60;99.90
40676;DHT22;26359;48.750;9.314;2023-02-18T09:39:34;12.60;99.90
40676;DHT22;26359;48.750;9.314;2023-02-18T09:42:04;12.70;99.90
40676;DHT22;26359;48.750;9.314;2023-02-18T09:44:35;12.70;99.90
40676;DHT22;26359;48.750;9.314;2023-02-18T09:47:08;12.70;99.90
40676;DHT22;26359;48.750;9.314;2023-02-18T09:49:38;12.70;99.90
40676;DHT22;26359;48.750;9.314;2023-02-18T09:54:49;12.70;99.90
40676;DHT22;26359;48.750;9.314;2023-02-18T09:57:42;12.80;99.90
40676;DHT22;26359;48.750;9.314;2023-02-18T10:00:14;12.80;99.90
40676;DHT22;26359;48.750;9.314;2023-02-18T10:02:52;12.80;99.90
40676;DHT22;26359;48.750;9.314;2023-02-18T10:05:20;12.80;99.90
40676;DHT22;26359;48.750;9.314;2023-02-18T10:07:47;12.90;99.90
40676;DHT22;26359;48.750;9.314;2023-02-18T10:12:57;12.90;99.90
40676;DHT22;26359;48.750;9.314;2023-02-18T10:15:27;13.00;99.90
40676;DHT22;26359;48.750;9.314;2023-02-18T10:17:55;13.00;99.90
40676;DHT22;26359;48.750;9.314;2023-02-18T10:20:25;13.00;99.90
40676;DHT22;26359;48.750;9.314;2023-02-18T10:22:53;13.00;99.90
40676;DHT22;26359;48.750;9.314;2023-02-18T10:25:22;13.00;99.90
40676;DHT22;26359;48.750;9.314;2023-02-18T10:27:50;13.10;99.90
40676;DHT22;26359;48.750;9.314;2023-02-18T10:30:22;13.20;99.90
40676;DHT22;26359;48.750;9.314;2023-02-18T10:33:00;13.20;99.90
40676;DHT22;26359;48.750;9.314;2023-02-18T10:38:41;13.30;99.90
40676;DHT22;26359;48.750;9.314;2023-02-18T10:41:18;13.20;99.90
40676;DHT22;26359;48.750;9.314;2023-02-18T10:46:28;13.40;99.90
40676;DHT22;26359;48.750;9.314;2023-02-18T10:51:34;13.50;99.90
40676;DHT22;26359;48.750;9.314;2023-02-18T10:54:01;13.60;99.90
40676;DHT22;26359;48.750;9.314;2023-02-18T10:56:47;13.60;99.90
40676;DHT22;26359;48.750;9.314;2023-02-18T10:59:21;13.60;99.90
40676;DHT22;26359;48.750;9.314;2023-02-18T11:02:03;13.60;99.90
40676;DHT22;26359;48.750;9.314;2023-02-18T11:04:37;13.60;99.90
40676;DHT22;26359;48.750;9.314;2023-02-18T11:07:09;13.60;99.90
40676;DHT22;26359;48.750;9.314;2023-02-18T11:12:43;13.70;99.90
40676;DHT22;26359;48.750;9.314;2023-02-18T11:17:40;13.80;99.90
40676;DHT22;26359;48.750;9.314;2023-02-18T11:20:30;13.80;99.90
40676;DHT22;26359;48.750;9.314;2023-02-18T11:25:35;13.80;99.90
40676;DHT22;26359;48.750;9.314;2023-02-18T11:28:27;13.90;99.90
40676;DHT22;26359;48.750;9.314;2023-02-18T11:30:57;13.90;99.90
40676;DHT22;26359;48.750;9.314;2023-02-18T11:33:32;13.90;99.90
40676;DHT22;26359;48.750;9.314;2023-02-18T11:36:03;14.00;99.90
40676;DHT22;26359;48.750;9.314;2023-02-18T11:38:40;14.00;99.90
40676;DHT22;26359;48.750;9.314;2023-02-18T11:41:09;14.10;99.90
40676;DHT22;26359;48.750;9.314;2023-02-18T11:43:40;14.20;99.90
40676;DHT22;26359;48.750;9.314;2023-02-18T11:46:16;14.30;99.90
40676;DHT22;26359;48.750;9.314;2023-02-18T11:48:42;14.30;99.90
40676;DHT22;26359;48.750;9.314;2023-02-18T11:51:18;14.40;99.90
40676;DHT22;26359;48.750;9.314;2023-02-18T11:56:24;14.40;99.90
40676;DHT22;26359;48.750;9.314;2023-02-18T11:58:50;14.40;99.90
40676;DHT22;26359;48.750;9.314;2023-02-18T12:01:37;14.60;99.90
40676;DHT22;26359;48.750;9.314;2023-02-18T12:04:17;14.70;99.90
40676;DHT22;26359;48.750;9.314;2023-02-18T12:06:51;14.70;99.90
40676;DHT22;26359;48.750;9.314;2023-02-18T12:09:36;14.70;99.90
40676;DHT22;26359;48.750;9.314;2023-02-18T12:14:43;14.60;99.90
40676;DHT22;26359;48.750;9.314;2023-02-18T12:20:09;14.50;99.90
40676;DHT22;26359;48.750;9.314;2023-02-18T12:22:44;14.60;99.90
40676;DHT22;26359;48.750;9.314;2023-02-18T12:28:10;14.60;99.90
40676;DHT22;26359;48.750;9.314;2023-02-18T12:33:35;14.70;99.90
40676;DHT22;26359;48.750;9.314;2023-02-18T12:36:22;14.70;99.90
40676;DHT22;26359;48.750;9.314;2023-02-18T12:39:01;14.70;99.90
40676;DHT22;26359;48.750;9.314;2023-02-18T12:41:52;14.80;99.90
40676;DHT22;26359;48.750;9.314;2023-02-18T12:47:28;14.60;99.90
40676;DHT22;26359;48.750;9.314;2023-02-18T12:56:04;14.90;99.90
40676;DHT22;26359;48.750;9.314;2023-02-18T12:58:50;15.00;99.90
40676;DHT22;26359;48.750;9.314;2023-02-18T13:01:37;15.00;99.90
40676;DHT22;26359;48.750;9.314;2023-02-18T13:09:53;15.20;99.90
40676;DHT22;26359;48.750;9.314;2023-02-18T13:12:35;15.10;99.90
40676;DHT22;26359;48.750;9.314;2023-02-18T13:15:26;15.10;99.90
40676;DHT22;26359;48.750;9.314;2023-02-18T13:17:56;14.90;99.90
40676;DHT22;26359;48.750;9.314;2023-02-18T13:21:11;14.80;99.90
40676;DHT22;26359;48.750;9.314;2023-02-18T13:23:35;14.70;99.90
40676;DHT22;26359;48.750;9.314;2023-02-18T13:26:05;14.60;99.90
40676;DHT22;26359;48.750;9.314;2023-02-18T13:29:04;14.50;99.90
40676;DHT22;26359;48.750;9.314;2023-02-18T13:31:41;14.40;99.90
40676;DHT22;26359;48.750;9.314;2023-02-18T13:34:15;14.30;99.90
40676;DHT22;26359;48.750;9.314;2023-02-18T13:36:56;14.30;99.90
40676;DHT22;26359;48.750;9.314;2023-02-18T13:39:25;14.30;99.90
40676;DHT22;26359;48.750;9.314;2023-02-18T13:42:23;14.30;99.90
40676;DHT22;26359;48.750;9.314;2023-02-18T13:47:42;14.40;99.90
40676;DHT22;26359;48.750;9.314;2023-02-18T13:55:39;14.50;99.90
40676;DHT22;26359;48.750;9.314;2023-02-18T13:58:13;14.50;99.90
40676;DHT22;26359;48.750;9.314;2023-02-18T14:00:48;14.50;99.90
40676;DHT22;26359;48.750;9.314;2023-02-18T14:05:55;14.80;99.90
40676;DHT22;26359;48.750;9.314;2023-02-18T14:08:35;15.00;99.90
40676;DHT22;26359;48.750;9.314;2023-02-18T14:14:15;15.20;99.90
40676;DHT22;26359;48.750;9.314;2023-02-18T14:19:52;15.30;99.90
40676;DHT22;26359;48.750;9.314;2023-02-18T14:27:46;15.40;99.90
40676;DHT22;26359;48.750;9.314;2023-02-18T14:30:38;15.30;99.90
40676;DHT22;26359;48.750;9.314;2023-02-18T14:33:05;15.20;99.90
40676;DHT22;26359;48.750;9.314;2023-02-18T14:35:34;15.10;99.90
40676;DHT22;26359;48.750;9.314;2023-02-18T14:40:48;15.00;99.90
40676;DHT22;26359;48.750;9.314;2023-02-18T14:46:16;15.20;99.90
40676;DHT22;26359;48.750;9.314;2023-02-18T14:49:04;15.20;99.90
40676;DHT22;26359;48.750;9.314;2023-02-18T14:51:33;15.10;99.90
40676;DHT22;26359;48.750;9.314;2023-02-18T14:54:11;15.00;99.90
40676;DHT22;26359;48.750;9.314;2023-02-18T14:56:44;15.10;99.90
40676;DHT22;26359;48.750;9.314;2023-02-18T14:59:13;15.30;99.90
40676;DHT22;26359;48.750;9.314;2023-02-18T15:01:39;15.40;99.90
40676;DHT22;26359;48.750;9.314;2023-02-18T15:04:05;15.20;99.90
40676;DHT22;26359;48.750;9.314;2023-02-18T15:06:36;15.10;99.90
40676;DHT22;26359;48.750;9.314;2023-02-18T15:09:17;15.00;99.90
40676;DHT22;26359;48.750;9.314;2023-02-18T15:11:46;14.70;99.90
40676;DHT22;26359;48.750;9.314;2023-02-18T15:14:17;14.70;99.90
40676;DHT22;26359;48.750;9.314;2023-02-18T15:16:44;14.70;99.90
40676;DHT22;26359;48.750;9.314;2023-02-18T15:19:16;14.70;99.90
40676;DHT22;26359;48.750;9.314;2023-02-18T15:21:45;14.70;99.90
40676;DHT22;26359;48.750;9.314;2023-02-18T15:24:21;14.70;99.90
40676;DHT22;26359;48.750;9.314;2023-02-18T15:26:48;14.60;99.90
40676;DHT22;26359;48.750;9.314;2023-02-18T15:29:24;14.40;99.90
40676;DHT22;26359;48.750;9.314;2023-02-18T15:31:50;14.30;99.90
40676;DHT22;26359;48.750;9.314;2023-02-18T15:36:54;14.30;99.90
40676;DHT22;26359;48.750;9.314;2023-02-18T15:39:21;14.20;99.90
40676;DHT22;26359;48.750;9.314;2023-02-18T15:41:54;14.20;99.90
40676;DHT22;26359;48.750;9.314;2023-02-18T15:44:26;14.20;99.90
40676;DHT22;26359;48.750;9.314;2023-02-18T15:46:53;14.10;99.90
40676;DHT22;26359;48.750;9.314;2023-02-18T15:49:21;14.10;99.90
40676;DHT22;26359;48.750;9.314;2023-02-18T15:51:49;14.10;99.90
40676;DHT22;26359;48.750;9.314;2023-02-18T15:54:17;14.00;99.90
40676;DHT22;26359;48.750;9.314;2023-02-18T15:56:48;14.00;99.90
40676;DHT22;26359;48.750;9.314;2023-02-18T15:59:32;14.00;99.90
40676;DHT22;26359;48.750;9.314;2023-02-18T16:04:38;14.00;99.90
40676;DHT22;26359;48.750;9.314;2023-02-18T16:07:19;14.00;99.90
40676;DHT22;26359;48.750;9.314;2023-02-18T16:09:44;13.90;99.90
40676;DHT22;26359;48.750;9.314;2023-02-18T16:12:21;13.90;99.90
40676;DHT22;26359;48.750;9.314;2023-02-18T16:14:49;13.90;99.90
40676;DHT22;26359;48.750;9.314;2023-02-18T16:17:17;13.90;99.90
40676;DHT22;26359;48.750;9.314;2023-02-18T16:19:50;13.80;99.90
40676;DHT22;26359;48.750;9.314;2023-02-18T16:27:34;13.80;99.90
40676;DHT22;26359;48.750;9.314;2023-02-18T16:30:13;13.80;99.90
40676;DHT22;26359;48.750;9.314;2023-02-18T16:32:40;13.80;99.90
40676;DHT22;26359;48.750;9.314;2023-02-18T16:35:06;13.70;99.90
40676;DHT22;26359;48.750;9.314;2023-02-18T16:37:31;13.70;99.90
40676;DHT22;26359;48.750;9.314;2023-02-18T16:40:20;13.70;99.90
40676;DHT22;26359;48.750;9.314;2023-02-18T16:42:46;13.60;99.90
40676;DHT22;26359;48.750;9.314;2023-02-18T16:45:11;13.60;99.90
40676;DHT22;26359;48.750;9.314;2023-02-18T16:47:38;13.60;99.90
40676;DHT22;26359;48.750;9.314;2023-02-18T16:50:04;13.50;99.90
40676;DHT22;26359;48.750;9.314;2023-02-18T16:52:30;13.50;99.90
40676;DHT22;26359;48.750;9.314;2023-02-18T16:54:56;13.50;99.90
40676;DHT22;26359;48.750;9.314;2023-02-18T16:57:22;13.50;99.90
40676;DHT22;26359;48.750;9.314;2023-02-18T16:59:48;13.40;99.90
40676;DHT22;26359;48.750;9.314;2023-02-18T17:02:19;13.40;99.90
40676;DHT22;26359;48.750;9.314;2023-02-18T17:04:45;13.40;99.90
40676;DHT22;26359;48.750;9.314;2023-02-18T17:07:11;13.40;99.90
40676;DHT22;26359;48.750;9.314;2023-02-18T17:09:36;13.40;99.90
40676;DHT22;26359;48.750;9.314;2023-02-18T17:12:02;13.30;99.90
40676;DHT22;26359;48.750;9.314;2023-02-18T17:14:28;13.30;99.90
40676;DHT22;26359;48.750;9.314;2023-02-18T17:16:53;13.30;99.90
40676;DHT22;26359;48.750;9.314;2023-02-18T17:19:20;13.20;99.90
40676;DHT22;26359;48.750;9.314;2023-02-18T17:21:45;13.20;99.90
40676;DHT22;26359;48.750;9.314;2023-02-18T17:24:12;13.20;99.90
40676;DHT22;26359;48.750;9.314;2023-02-18T17:26:39;13.20;99.90
40676;DHT22;26359;48.750;9.314;2023-02-18T17:29:04;13.20;99.90
40676;DHT22;26359;48.750;9.314;2023-02-18T17:31:33;13.20;99.90
40676;DHT22;26359;48.750;9.314;2023-02-18T17:34:03;13.20;99.90
40676;DHT22;26359;48.750;9.314;2023-02-18T17:36:29;13.20;99.90
40676;DHT22;26359;48.750;9.314;2023-02-18T17:38:56;13.10;99.90
40676;DHT22;26359;48.750;9.314;2023-02-18T17:41:22;13.20;99.90
40676;DHT22;26359;48.750;9.314;2023-02-18T17:43:47;13.10;99.90
40676;DHT22;26359;48.750;9.314;2023-02-18T17:46:16;13.10;99.90
40676;DHT22;26359;48.750;9.314;2023-02-18T17:48:45;13.10;99.90
40676;DHT22;26359;48.750;9.314;2023-02-18T17:51:25;13.10;99.90
40676;DHT22;26359;48.750;9.314;2023-02-18T17:53:51;13.10;99.90
40676;DHT22;26359;48.750;9.314;2023-02-18T17:56:17;13.00;99.90